Time;durP1;ratioP1;P1;durP2;ratioP2;P2;SDS_P1;SDS_P2;PMS_P1;PMS_P2;Temp;Humidity;BMP_temperature;BMP_pressure;BME280_temperature;BME280_humidity;BME280_pressure;Samples;Min_cycle;Max_cycle;Signal;HPM_P1;HPM_P2
2022/09/06 00:01:56;;;;;;;7.35;5.20;;;18.60;99.90;;;;;;5020368;28;20234;-67
2022/09/06 00:04:22;;;;;;;5.75;5.15;;;18.60;99.90;;;;;;5026103;28;20695;-67
2022/09/06 00:06:48;;;;;;;7.22;5.75;;;18.50;99.90;;;;;;5023333;28;20194;-67
2022/09/06 00:09:13;;;;;;;8.55;5.88;;;18.60;99.90;;;;;;5025179;28;20187;-67
2022/09/06 00:11:39;;;;;;;6.22;5.70;;;18.50;99.90;;;;;;5014660;28;20598;-67
2022/09/06 00:14:04;;;;;;;5.38;4.88;;;18.50;99.90;;;;;;5016193;28;20211;-67
2022/09/06 00:16:30;;;;;;;8.88;5.28;;;18.50;99.90;;;;;;5030845;28;20182;-67
2022/09/06 00:18:56;;;;;;;7.15;5.00;;;18.40;99.90;;;;;;5029820;28;20245;-67
2022/09/06 00:21:24;;;;;;;6.63;5.30;;;18.50;99.90;;;;;;5014834;28;20219;-67
2022/09/06 00:23:50;;;;;;;5.60;4.82;;;18.40;99.90;;;;;;5017789;28;20788;-67
2022/09/06 00:26:17;;;;;;;10.10;6.13;;;18.50;99.90;;;;;;5015295;28;20229;-67
2022/09/06 00:28:43;;;;;;;7.35;5.97;;;18.50;99.90;;;;;;5016274;28;20179;-67
2022/09/06 00:31:11;;;;;;;4.60;4.00;;;18.50;99.90;;;;;;5015600;28;20186;-67
2022/09/06 00:33:37;;;;;;;5.85;5.15;;;18.40;99.90;;;;;;5020209;28;20751;-67
2022/09/06 00:36:03;;;;;;;6.40;5.18;;;18.40;99.90;;;;;;5018417;28;20183;-67
2022/09/06 00:38:28;;;;;;;9.73;4.60;;;18.50;99.90;;;;;;5014286;28;20206;-67
2022/09/06 00:40:54;;;;;;;7.28;5.10;;;18.50;99.90;;;;;;5024649;28;20216;-67
2022/09/06 00:43:20;;;;;;;5.47;4.53;;;18.40;99.90;;;;;;5017528;28;20187;-67
2022/09/06 00:45:46;;;;;;;6.28;5.68;;;18.40;99.90;;;;;;5019741;28;20628;-67
2022/09/06 00:48:11;;;;;;;5.90;5.20;;;18.40;99.90;;;;;;5015199;28;20195;-67
2022/09/06 00:50:37;;;;;;;6.63;4.07;;;18.40;99.90;;;;;;5013914;28;20623;-67
2022/09/06 00:53:05;;;;;;;5.38;4.70;;;18.30;99.90;;;;;;5015121;28;20660;-67
2022/09/06 00:55:31;;;;;;;6.90;4.90;;;18.40;99.90;;;;;;5048653;28;20178;-67
2022/09/06 00:57:57;;;;;;;6.53;5.03;;;18.40;99.90;;;;;;5014080;28;20171;-69
2022/09/06 01:00:23;;;;;;;6.18;5.38;;;18.60;99.90;;;;;;5031393;28;20232;-68
2022/09/06 01:02:48;;;;;;;4.70;3.70;;;18.40;99.90;;;;;;5016202;28;20183;-68
2022/09/06 01:05:15;;;;;;;4.55;4.15;;;18.40;99.90;;;;;;5014051;28;20206;-67
2022/09/06 01:07:47;;;;;;;5.65;4.18;;;18.30;99.90;;;;;;5019688;28;20240;-67
2022/09/06 01:10:59;;;;;;;4.65;4.25;;;18.20;99.90;;;;;;5029311;28;20643;-67
2022/09/06 01:13:28;;;;;;;5.03;4.53;;;18.10;99.90;;;;;;5012226;28;20276;-66
2022/09/06 01:16:25;;;;;;;5.70;5.03;;;18.10;99.90;;;;;;5025770;28;20203;-67
2022/09/06 01:18:51;;;;;;;7.65;3.50;;;18.10;99.90;;;;;;5014545;28;20191;-67
2022/09/06 01:21:40;;;;;;;5.35;4.28;;;18.00;99.90;;;;;;5046483;28;20172;-67
2022/09/06 01:24:18;;;;;;;7.32;5.05;;;17.90;99.90;;;;;;5020426;28;20272;-67
2022/09/06 01:27:02;;;;;;;6.43;4.90;;;17.90;99.90;;;;;;5017794;28;20179;-66
2022/09/06 01:29:49;;;;;;;8.38;7.05;;;18.00;99.90;;;;;;5014495;28;20195;-67
2022/09/06 01:32:26;;;;;;;4.60;4.20;;;18.00;99.90;;;;;;5054827;28;20186;-67
2022/09/06 01:35:21;;;;;;;5.95;4.22;;;18.10;99.90;;;;;;5027962;28;20543;-66
2022/09/06 01:37:47;;;;;;;5.43;4.68;;;18.00;99.90;;;;;;5014777;28;20194;-67
2022/09/06 01:40:13;;;;;;;5.35;4.78;;;18.00;99.90;;;;;;5014545;28;20728;-67
2022/09/06 01:42:41;;;;;;;5.65;4.93;;;17.90;99.90;;;;;;5014301;28;20652;-67
2022/09/06 01:45:14;;;;;;;6.07;4.72;;;17.90;99.90;;;;;;5019117;28;20251;-67
2022/09/06 01:47:54;;;;;;;6.15;4.72;;;17.90;99.90;;;;;;5026975;28;20190;-67
2022/09/06 01:50:53;;;;;;;4.07;3.50;;;17.90;99.90;;;;;;5031741;28;20187;-66
2022/09/06 01:53:37;;;;;;;5.47;4.35;;;17.80;99.90;;;;;;5029555;28;20535;-65
2022/09/06 01:56:32;;;;;;;4.50;4.07;;;17.90;99.90;;;;;;5017048;28;20533;-70
2022/09/06 01:59:20;;;;;;;5.22;3.83;;;18.00;99.90;;;;;;5017891;28;20184;-65
2022/09/06 02:02:04;;;;;;;8.93;4.82;;;18.10;99.90;;;;;;5017129;28;20649;-65
2022/09/06 02:04:50;;;;;;;5.88;4.50;;;18.20;99.90;;;;;;5013799;28;20576;-66
2022/09/06 02:07:23;;;;;;;7.22;4.88;;;18.20;99.90;;;;;;5014443;28;20203;-65
2022/09/06 02:09:55;;;;;;;13.20;4.97;;;18.20;99.90;;;;;;5021626;28;20643;-66
2022/09/06 02:12:22;;;;;;;4.80;4.40;;;18.20;99.90;;;;;;5027578;28;20651;-65
2022/09/06 02:15:04;;;;;;;6.05;3.70;;;18.30;99.90;;;;;;5023694;28;20222;-64
2022/09/06 02:17:34;;;;;;;5.00;4.55;;;18.20;99.90;;;;;;5017138;28;20179;-63
2022/09/06 02:20:06;;;;;;;6.93;4.40;;;18.20;99.90;;;;;;5024250;28;20224;-64
2022/09/06 02:22:37;;;;;;;4.68;3.95;;;18.20;99.90;;;;;;5014868;28;20201;-64
2022/09/06 02:25:07;;;;;;;4.50;4.07;;;18.20;99.90;;;;;;5011427;28;20277;-64
2022/09/06 02:27:33;;;;;;;6.72;4.95;;;18.20;99.90;;;;;;5011739;28;20596;-64
2022/09/06 02:30:01;;;;;;;6.88;4.68;;;18.10;99.90;;;;;;5014539;28;20277;-65
2022/09/06 02:32:29;;;;;;;8.68;4.55;;;18.10;99.90;;;;;;5017678;28;20652;-64
2022/09/06 02:34:56;;;;;;;8.40;5.85;;;18.20;99.90;;;;;;5011524;28;20206;-64
2022/09/06 02:37:25;;;;;;;6.20;5.15;;;18.30;99.90;;;;;;5011156;28;20192;-64
2022/09/06 02:39:54;;;;;;;5.45;4.30;;;18.30;99.90;;;;;;5013468;28;20184;-64
2022/09/06 02:42:20;;;;;;;5.97;5.40;;;18.20;99.90;;;;;;5023144;28;20210;-64
2022/09/06 02:44:46;;;;;;;6.72;4.57;;;18.10;99.90;;;;;;5019549;28;20521;-64
2022/09/06 02:47:11;;;;;;;8.57;5.22;;;18.10;99.90;;;;;;5050105;28;20187;-64
2022/09/06 02:49:38;;;;;;;7.00;3.75;;;18.30;99.90;;;;;;5013094;28;20187;-65
2022/09/06 02:52:03;;;;;;;7.53;4.97;;;18.20;99.90;;;;;;5013287;28;20194;-69
2022/09/06 02:54:30;;;;;;;5.50;4.32;;;18.40;99.90;;;;;;5013202;28;20210;-69
2022/09/06 02:56:55;;;;;;;8.82;6.15;;;18.50;99.90;;;;;;5024867;28;20178;-69
2022/09/06 02:59:21;;;;;;;5.57;4.40;;;18.40;99.90;;;;;;4989749;28;20638;-69
2022/09/06 03:01:47;;;;;;;7.28;4.30;;;18.10;99.90;;;;;;5020093;28;20186;-69
2022/09/06 03:04:12;;;;;;;4.93;4.35;;;18.10;99.90;;;;;;5013572;28;20187;-69
2022/09/06 03:06:38;;;;;;;4.93;4.35;;;18.00;99.90;;;;;;5012604;28;20648;-69
2022/09/06 03:09:03;;;;;;;12.00;7.50;;;17.90;99.90;;;;;;5013553;28;20180;-69
2022/09/06 03:11:29;;;;;;;5.13;4.55;;;17.90;99.90;;;;;;5017901;28;20183;-69
2022/09/06 03:13:55;;;;;;;6.82;5.32;;;17.90;99.90;;;;;;5032167;28;20210;-69
2022/09/06 03:16:21;;;;;;;7.22;4.53;;;17.80;99.90;;;;;;5028812;28;20186;-69
2022/09/06 03:18:47;;;;;;;5.07;4.18;;;17.70;99.90;;;;;;5013821;28;20176;-69
2022/09/06 03:21:13;;;;;;;10.93;3.90;;;17.70;99.90;;;;;;5014549;28;20179;-69
2022/09/06 03:23:39;;;;;;;6.03;4.13;;;17.70;99.90;;;;;;5027021;28;20529;-69
2022/09/06 03:26:06;;;;;;;5.43;4.93;;;17.70;99.90;;;;;;5012133;28;20321;-70
2022/09/06 03:28:32;;;;;;;5.25;4.50;;;17.60;99.90;;;;;;5012315;28;20188;-69
2022/09/06 03:30:58;;;;;;;7.43;5.38;;;17.60;99.90;;;;;;5020268;28;20559;-69
2022/09/06 03:33:24;;;;;;;6.72;5.63;;;17.60;99.90;;;;;;5031431;28;20285;-69
2022/09/06 03:35:57;;;;;;;7.40;6.30;;;17.70;99.90;;;;;;5018225;28;20315;-69
2022/09/06 03:38:25;;;;;;;6.10;4.78;;;17.70;99.90;;;;;;5013982;28;20266;-69
2022/09/06 03:40:54;;;;;;;6.68;5.78;;;17.70;99.90;;;;;;5014114;28;20711;-69
2022/09/06 03:43:21;;;;;;;7.20;5.65;;;17.70;99.90;;;;;;5028649;28;20174;-71
2022/09/06 03:45:49;;;;;;;5.72;5.18;;;17.70;99.90;;;;;;5044452;28;20663;-69
2022/09/06 03:48:16;;;;;;;6.93;5.18;;;17.70;99.90;;;;;;5027183;28;20179;-69
2022/09/06 03:50:46;;;;;;;6.35;5.75;;;17.60;99.90;;;;;;5016725;28;20187;-69
2022/09/06 03:53:13;;;;;;;6.40;5.03;;;17.60;99.90;;;;;;5018545;28;20672;-69
2022/09/06 03:55:38;;;;;;;7.75;5.93;;;17.50;99.90;;;;;;5016130;28;20198;-69
2022/09/06 03:58:04;;;;;;;8.43;6.32;;;17.50;99.90;;;;;;5016157;28;20183;-69
2022/09/06 04:00:32;;;;;;;9.82;5.88;;;17.50;99.90;;;;;;5054582;28;20277;-69
2022/09/06 04:02:58;;;;;;;9.88;5.28;;;17.50;99.90;;;;;;5018866;28;20315;-69
2022/09/06 04:05:23;;;;;;;9.30;6.78;;;17.50;99.90;;;;;;5027791;28;20270;-69
2022/09/06 04:07:49;;;;;;;11.13;5.53;;;17.50;99.90;;;;;;5047763;28;20262;-69
2022/09/06 04:10:15;;;;;;;7.43;5.50;;;17.40;99.90;;;;;;5033096;28;20617;-69
2022/09/06 04:12:40;;;;;;;10.77;5.13;;;17.40;99.90;;;;;;5022357;28;20302;-69
2022/09/06 04:15:06;;;;;;;9.07;6.97;;;17.30;99.90;;;;;;5009458;28;20180;-69
2022/09/06 04:17:33;;;;;;;8.20;6.18;;;17.30;99.90;;;;;;5031968;28;20203;-69
2022/09/06 04:19:59;;;;;;;7.72;6.70;;;17.30;99.90;;;;;;5031429;28;20237;-69
2022/09/06 04:22:25;;;;;;;7.93;6.50;;;17.40;99.90;;;;;;5021903;28;20421;-69
2022/09/06 04:24:51;;;;;;;10.10;6.75;;;17.30;99.90;;;;;;5032116;28;20240;-69
2022/09/06 04:27:16;;;;;;;13.55;6.90;;;17.30;99.90;;;;;;5027693;28;20187;-69
2022/09/06 04:29:42;;;;;;;10.10;7.22;;;17.30;99.90;;;;;;5022262;28;20269;-69
2022/09/06 04:32:08;;;;;;;9.07;6.75;;;17.30;99.90;;;;;;5029367;28;20198;-69
2022/09/06 04:34:34;;;;;;;10.93;6.35;;;17.30;99.90;;;;;;5050358;28;20211;-69
2022/09/06 04:36:59;;;;;;;11.40;7.10;;;17.40;99.90;;;;;;5015516;28;20274;-69
2022/09/06 04:39:25;;;;;;;10.98;7.05;;;17.40;99.90;;;;;;5027444;28;20251;-69
2022/09/06 04:41:51;;;;;;;8.93;6.47;;;17.40;99.90;;;;;;5017499;28;20222;-64
2022/09/06 04:44:16;;;;;;;8.05;6.75;;;17.40;99.90;;;;;;5021290;28;20219;-63
2022/09/06 04:46:42;;;;;;;8.77;7.10;;;17.40;99.90;;;;;;5031121;28;20187;-64
2022/09/06 04:49:08;;;;;;;9.65;7.38;;;17.40;99.90;;;;;;5026726;28;20244;-63
2022/09/06 04:51:33;;;;;;;14.02;7.47;;;17.40;99.90;;;;;;5020728;28;20194;-64
2022/09/06 04:53:59;;;;;;;10.05;6.07;;;17.50;99.90;;;;;;5032888;28;20210;-63
2022/09/06 04:56:25;;;;;;;10.18;7.35;;;17.50;99.90;;;;;;5021673;28;20191;-64
2022/09/06 04:58:53;;;;;;;7.50;6.80;;;17.50;99.90;;;;;;5027552;28;20186;-64
2022/09/06 05:01:19;;;;;;;10.85;7.38;;;17.40;99.90;;;;;;5014078;28;20194;-65
2022/09/06 05:03:45;;;;;;;9.75;6.88;;;17.50;99.90;;;;;;5055639;28;20197;-64
2022/09/06 05:06:22;;;;;;;13.68;6.72;;;17.40;99.90;;;;;;5018780;28;20179;-63
2022/09/06 05:08:48;;;;;;;15.00;7.05;;;17.30;99.90;;;;;;5015736;28;20210;-63
2022/09/06 05:11:15;;;;;;;11.82;6.85;;;17.40;99.90;;;;;;5020535;28;20196;-64
2022/09/06 05:13:41;;;;;;;7.32;6.07;;;17.40;99.90;;;;;;5025918;28;20211;-64
2022/09/06 05:16:08;;;;;;;10.43;8.13;;;17.40;99.90;;;;;;5024481;28;20191;-64
2022/09/06 05:18:34;;;;;;;13.95;7.32;;;17.40;99.90;;;;;;5029122;28;20203;-64
2022/09/06 05:21:00;;;;;;;9.93;6.72;;;17.40;99.90;;;;;;5064163;28;20262;-64
2022/09/06 05:23:26;;;;;;;17.63;8.10;;;17.40;99.90;;;;;;5015046;28;20283;-63
2022/09/06 05:25:52;;;;;;;12.80;8.38;;;17.50;99.90;;;;;;5016304;28;20274;-63
2022/09/06 05:28:18;;;;;;;9.65;6.85;;;17.60;99.90;;;;;;5046919;28;20278;-64
2022/09/06 05:30:44;;;;;;;13.30;7.75;;;17.60;99.90;;;;;;5019614;28;20187;-64
2022/09/06 05:33:11;;;;;;;11.32;7.60;;;17.60;99.90;;;;;;5021657;28;20706;-64
2022/09/06 05:35:37;;;;;;;11.48;7.68;;;17.60;99.90;;;;;;5015543;28;20188;-64
2022/09/06 05:38:03;;;;;;;10.82;7.18;;;17.80;99.90;;;;;;5017029;28;20509;-63
2022/09/06 05:40:29;;;;;;;12.07;8.52;;;17.90;99.90;;;;;;5033781;28;20549;-63
2022/09/06 05:42:55;;;;;;;12.50;7.82;;;17.90;99.90;;;;;;5028264;28;20195;-64
2022/09/06 05:45:20;;;;;;;8.80;7.25;;;17.90;99.90;;;;;;5023448;28;20576;-63
2022/09/06 05:47:47;;;;;;;11.95;8.43;;;17.80;99.90;;;;;;5015529;28;20412;-63
2022/09/06 05:50:14;;;;;;;11.68;8.02;;;17.70;99.90;;;;;;5013180;28;20187;-64
2022/09/06 05:52:39;;;;;;;8.30;6.82;;;17.80;99.90;;;;;;5031162;28;20568;-63
2022/09/06 05:55:06;;;;;;;10.15;6.90;;;17.80;99.90;;;;;;5016916;28;20190;-64
2022/09/06 05:57:32;;;;;;;8.85;6.80;;;17.90;99.90;;;;;;5017128;28;20234;-63
2022/09/06 05:59:58;;;;;;;8.13;6.55;;;18.00;99.90;;;;;;5023205;28;20676;-64
2022/09/06 06:02:24;;;;;;;10.27;6.70;;;18.10;99.90;;;;;;5023861;28;20888;-64
2022/09/06 06:04:50;;;;;;;8.45;6.45;;;18.20;99.90;;;;;;5021864;28;20182;-64
2022/09/06 06:07:17;;;;;;;11.18;6.93;;;18.20;99.90;;;;;;5027625;28;20202;-64
2022/09/06 06:09:42;;;;;;;11.65;6.13;;;18.20;99.90;;;;;;5013713;28;20195;-64
2022/09/06 06:12:08;;;;;;;8.65;6.13;;;18.30;99.90;;;;;;5013610;28;20191;-63
2022/09/06 06:14:34;;;;;;;9.40;6.18;;;18.40;99.90;;;;;;5021699;28;20678;-63
2022/09/06 06:17:01;;;;;;;9.23;5.45;;;18.40;99.90;;;;;;5028701;28;20659;-64
2022/09/06 06:19:27;;;;;;;8.85;6.20;;;18.60;99.90;;;;;;5027075;28;20185;-64
2022/09/06 06:21:54;;;;;;;7.03;5.70;;;18.60;99.90;;;;;;5013629;28;20198;-63
2022/09/06 06:24:20;;;;;;;6.25;4.85;;;18.80;99.90;;;;;;5030417;28;20197;-63
2022/09/06 06:26:46;;;;;;;5.90;5.07;;;18.80;99.90;;;;;;5019776;28;20187;-63
2022/09/06 06:29:13;;;;;;;7.68;5.20;;;18.70;99.90;;;;;;5014418;28;20183;-64
2022/09/06 06:31:39;;;;;;;5.95;4.68;;;18.80;99.90;;;;;;5014256;28;20280;-63
2022/09/06 06:34:04;;;;;;;5.93;4.60;;;19.00;99.90;;;;;;5045324;28;20267;-63
2022/09/06 06:36:32;;;;;;;6.78;4.28;;;18.90;99.90;;;;;;5023443;28;20278;-63
2022/09/06 06:38:59;;;;;;;9.07;4.00;;;18.90;99.90;;;;;;5014729;28;20719;-63
2022/09/06 06:41:27;;;;;;;7.90;5.68;;;19.10;99.90;;;;;;5017702;28;20282;-64
2022/09/06 06:44:03;;;;;;;6.63;4.28;;;19.10;99.90;;;;;;5021270;28;20199;-64
2022/09/06 06:46:34;;;;;;;6.20;3.72;;;19.00;99.90;;;;;;5008329;28;20179;-63
2022/09/06 06:48:59;;;;;;;4.47;4.05;;;19.00;99.90;;;;;;5016211;28;20183;-63
2022/09/06 06:51:27;;;;;;;4.05;3.35;;;19.00;99.90;;;;;;5044609;28;20183;-64
2022/09/06 06:53:55;;;;;;;7.13;3.65;;;19.00;99.90;;;;;;5018919;28;20304;-63
2022/09/06 06:56:33;;;;;;;6.38;4.93;;;19.00;99.90;;;;;;5014152;28;20183;-63
2022/09/06 06:59:00;;;;;;;4.07;3.67;;;19.00;99.90;;;;;;5028966;28;20178;-63
2022/09/06 07:01:28;;;;;;;4.95;3.17;;;19.00;99.90;;;;;;5024103;28;20275;-63
2022/09/06 07:03:54;;;;;;;4.65;3.17;;;19.00;99.90;;;;;;5017900;28;20266;-63
2022/09/06 07:06:20;;;;;;;5.47;3.00;;;19.10;99.90;;;;;;5017746;28;20193;-64
2022/09/06 07:08:47;;;;;;;8.15;5.05;;;19.30;99.90;;;;;;5027372;28;20198;-63
2022/09/06 07:11:14;;;;;;;4.50;3.75;;;19.60;99.90;;;;;;5013508;28;20184;-63
2022/09/06 07:13:40;;;;;;;3.50;2.78;;;19.90;99.90;;;;;;5023649;28;20219;-63
2022/09/06 07:16:22;;;;;;;4.35;3.70;;;20.10;99.90;;;;;;5018427;28;20722;-63
2022/09/06 07:18:52;;;;;;;6.45;3.17;;;20.00;99.90;;;;;;5017656;28;20187;-63
2022/09/06 07:21:25;;;;;;;3.92;3.10;;;20.00;99.90;;;;;;5020556;28;20201;-63
2022/09/06 07:23:55;;;;;;;7.28;5.15;;;20.00;99.90;;;;;;5034628;28;20231;-63
2022/09/06 07:26:26;;;;;;;4.65;3.28;;;20.40;99.90;;;;;;5025746;28;20179;-63
2022/09/06 07:28:53;;;;;;;3.53;2.83;;;21.60;99.90;;;;;;5026311;28;20183;-63
2022/09/06 07:31:18;;;;;;;4.13;2.60;;;23.00;99.90;;;;;;5032709;28;20617;-63
2022/09/06 07:33:44;;;;;;;4.82;3.80;;;24.30;99.90;;;;;;5029301;28;20296;-64
2022/09/06 07:36:10;;;;;;;3.25;2.95;;;25.60;99.90;;;;;;5034837;28;20229;-62
2022/09/06 07:38:36;;;;;;;4.97;4.15;;;26.50;99.90;;;;;;5017855;28;20673;-63
2022/09/06 07:41:05;;;;;;;3.42;2.60;;;27.10;99.90;;;;;;5020701;28;20187;-62
2022/09/06 07:43:31;;;;;;;3.30;2.17;;;27.40;99.90;;;;;;5022770;28;20223;-63
2022/09/06 07:45:58;;;;;;;3.35;2.47;;;27.60;99.90;;;;;;5015050;28;20183;-63
2022/09/06 07:48:23;;;;;;;3.88;2.00;;;28.10;99.90;;;;;;5030210;28;20183;-63
2022/09/06 07:50:49;;;;;;;3.70;2.20;;;28.40;99.90;;;;;;5006152;28;20217;-62
2022/09/06 07:53:15;;;;;;;3.53;2.92;;;28.10;99.90;;;;;;5019985;28;20207;-63
2022/09/06 07:55:41;;;;;;;3.30;2.70;;;27.60;99.90;;;;;;5028875;28;20277;-63
2022/09/06 07:58:06;;;;;;;3.17;2.67;;;28.20;99.90;;;;;;5029832;28;20192;-63
2022/09/06 08:00:32;;;;;;;4.85;2.60;;;28.70;99.90;;;;;;5032654;28;20185;-62
2022/09/06 08:02:58;;;;;;;2.08;1.88;;;29.20;99.90;;;;;;5023001;28;20191;-63
2022/09/06 08:05:23;;;;;;;2.83;2.40;;;29.50;99.90;;;;;;5023917;28;20183;-62
2022/09/06 08:07:50;;;;;;;2.65;2.22;;;29.90;99.90;;;;;;5017321;28;20198;-63
2022/09/06 08:10:15;;;;;;;4.13;2.78;;;30.80;99.90;;;;;;5028067;28;20236;-64
2022/09/06 08:12:41;;;;;;;5.72;2.58;;;31.50;99.90;;;;;;5015230;28;20182;-63
2022/09/06 08:15:07;;;;;;;6.00;2.67;;;31.40;99.90;;;;;;5021095;28;20187;-64
2022/09/06 08:17:34;;;;;;;2.72;2.47;;;31.30;99.90;;;;;;5050235;28;20189;-63
2022/09/06 08:20:03;;;;;;;8.00;3.25;;;31.30;99.90;;;;;;5014664;28;20183;-63
2022/09/06 08:22:32;;;;;;;5.22;2.47;;;30.60;99.90;;;;;;5030216;28;20690;-63
2022/09/06 08:24:58;;;;;;;5.18;2.70;;;30.70;99.90;;;;;;5026347;28;20187;-63
2022/09/06 08:27:24;;;;;;;3.70;3.10;;;30.20;99.90;;;;;;5028151;28;20186;-63
2022/09/06 08:29:50;;;;;;;3.47;2.42;;;29.90;99.90;;;;;;5029654;28;20196;-63
2022/09/06 08:32:16;;;;;;;2.88;2.55;;;30.00;99.90;;;;;;5029063;28;20189;-63
2022/09/06 08:34:41;;;;;;;6.88;3.28;;;30.50;99.90;;;;;;5024750;28;20246;-63
2022/09/06 08:37:07;;;;;;;6.90;3.70;;;30.90;99.90;;;;;;5017606;28;20183;-63
2022/09/06 08:39:32;;;;;;;6.85;4.07;;;31.10;99.90;;;;;;5015207;28;20201;-63
2022/09/06 08:42:04;;;;;;;5.38;3.10;;;31.70;99.90;;;;;;5026765;28;20225;-63
2022/09/06 08:44:40;;;;;;;8.35;3.83;;;32.40;99.90;;;;;;5015205;28;20218;-63
2022/09/06 08:47:14;;;;;;;3.60;2.95;;;32.80;99.90;;;;;;5015779;28;20179;-63
2022/09/06 08:49:53;;;;;;;6.70;3.60;;;32.60;99.90;;;;;;5020269;28;20239;-63
2022/09/06 08:52:35;;;;;;;4.28;3.38;;;31.20;99.90;;;;;;5015181;28;20647;-63
2022/09/06 08:55:12;;;;;;;4.45;4.05;;;29.90;99.90;;;;;;5016967;28;21572;-63
2022/09/06 08:58:03;;;;;;;7.18;3.78;;;28.70;99.90;;;;;;5030538;28;20193;-63
2022/09/06 09:00:30;;;;;;;7.43;3.90;;;27.80;99.90;;;;;;5020600;28;20587;-64
2022/09/06 09:03:11;;;;;;;6.65;4.35;;;27.00;99.90;;;;;;5027980;28;20239;-63
2022/09/06 09:05:39;;;;;;;5.35;4.15;;;26.40;99.90;;;;;;5031296;28;20196;-63
2022/09/06 09:08:26;;;;;;;7.65;4.10;;;26.30;99.90;;;;;;5021798;28;20267;-63
2022/09/06 09:11:01;;;;;;;7.18;4.55;;;26.20;99.90;;;;;;5013785;28;20319;-62
2022/09/06 09:13:47;;;;;;;7.03;4.53;;;26.00;99.90;;;;;;5027271;28;20260;-63
2022/09/06 09:16:16;;;;;;;15.38;4.80;;;25.90;99.90;;;;;;5022435;28;20651;-63
2022/09/06 09:18:50;;;;;;;6.50;3.95;;;25.70;99.90;;;;;;5020714;28;20232;-63
2022/09/06 09:21:21;;;;;;;5.45;4.18;;;25.60;99.90;;;;;;5021900;28;20181;-62
2022/09/06 09:24:00;;;;;;;4.57;3.97;;;25.60;99.90;;;;;;5026410;28;20194;-62
2022/09/06 09:26:30;;;;;;;5.18;3.45;;;25.60;99.90;;;;;;5017747;28;20597;-62
2022/09/06 09:29:07;;;;;;;5.30;3.47;;;25.50;99.90;;;;;;5025575;28;20850;-64
2022/09/06 09:31:36;;;;;;;4.18;3.20;;;25.30;99.90;;;;;;5027157;28;20176;-62
2022/09/06 09:34:03;;;;;;;9.52;3.67;;;25.30;99.90;;;;;;5021538;28;20294;-63
2022/09/06 09:36:30;;;;;;;5.57;2.65;;;25.50;99.90;;;;;;5019315;28;20199;-63
2022/09/06 09:38:57;;;;;;;4.97;2.95;;;25.70;99.90;;;;;;5033538;28;20546;-62
2022/09/06 09:41:34;;;;;;;4.15;3.50;;;25.90;99.90;;;;;;5007804;28;20186;-62
2022/09/06 09:44:04;;;;;;;3.55;3.25;;;25.90;99.90;;;;;;5015005;28;20656;-62
2022/09/06 09:46:35;;;;;;;4.05;3.40;;;26.00;99.90;;;;;;5023300;28;20269;-62
2022/09/06 09:49:13;;;;;;;3.55;2.88;;;25.90;99.90;;;;;;5029818;28;20191;-63
2022/09/06 09:51:39;;;;;;;8.98;3.15;;;25.70;99.90;;;;;;5027379;28;20206;-62
2022/09/06 09:54:08;;;;;;;5.85;3.05;;;25.60;99.90;;;;;;5014441;28;20207;-62
2022/09/06 09:56:52;;;;;;;3.50;2.80;;;25.70;99.90;;;;;;5014942;28;20214;-62
2022/09/06 09:59:20;;;;;;;3.00;2.28;;;25.60;99.90;;;;;;5021625;28;20179;-62
2022/09/06 10:01:46;;;;;;;3.33;3.10;;;25.60;99.90;;;;;;5029281;28;20552;-62
2022/09/06 10:04:24;;;;;;;3.70;2.33;;;25.70;99.90;;;;;;5023666;28;20269;-62
2022/09/06 10:06:50;;;;;;;3.67;3.35;;;25.70;99.90;;;;;;5019466;28;20182;-62
2022/09/06 10:09:21;;;;;;;4.05;2.58;;;25.80;99.90;;;;;;5017392;28;20274;-62
2022/09/06 10:11:56;;;;;;;2.20;1.85;;;25.80;99.90;;;;;;5015224;28;20183;-62
2022/09/06 10:14:27;;;;;;;4.20;2.47;;;25.60;99.90;;;;;;5015829;28;20745;-62
2022/09/06 10:16:54;;;;;;;5.13;2.88;;;25.70;99.90;;;;;;5024978;28;20191;-62
2022/09/06 10:19:36;;;;;;;3.60;2.88;;;25.80;99.90;;;;;;5026830;28;20190;-63
2022/09/06 10:22:22;;;;;;;2.67;2.47;;;25.80;99.90;;;;;;5014159;28;20190;-62
2022/09/06 10:24:56;;;;;;;3.65;1.98;;;25.70;99.90;;;;;;5013691;28;20183;-62
2022/09/06 10:27:25;;;;;;;2.97;1.90;;;25.70;99.90;;;;;;5028448;28;20186;-62
2022/09/06 10:30:03;;;;;;;2.45;2.20;;;25.70;99.90;;;;;;5029996;28;20194;-63
2022/09/06 10:32:59;;;;;;;2.03;1.88;;;25.80;99.90;;;;;;5051219;28;20266;-62
2022/09/06 10:35:38;;;;;;;4.45;2.35;;;25.90;99.90;;;;;;5016212;28;20188;-62
2022/09/06 10:38:41;;;;;;;3.90;2.22;;;25.90;99.90;;;;;;5018138;28;20183;-62
2022/09/06 10:41:22;;;;;;;2.30;1.75;;;25.90;99.90;;;;;;5015801;28;20194;-62
2022/09/06 10:44:03;;;;;;;2.40;2.13;;;25.90;99.90;;;;;;5022278;28;20663;-62
2022/09/06 10:46:33;;;;;;;3.13;2.28;;;25.90;99.90;;;;;;5014559;28;20183;-62
2022/09/06 10:48:59;;;;;;;1.70;1.60;;;25.70;99.90;;;;;;5023653;28;20272;-62
2022/09/06 10:51:40;;;;;;;7.30;2.13;;;25.90;99.90;;;;;;5013875;28;20279;-62
2022/09/06 10:54:13;;;;;;;2.13;2.00;;;26.00;99.90;;;;;;5013554;28;20203;-63
2022/09/06 10:56:45;;;;;;;2.22;1.90;;;26.10;99.90;;;;;;5027088;28;20198;-62
2022/09/06 10:59:38;;;;;;;4.35;1.88;;;26.10;99.90;;;;;;5013926;28;20542;-62
2022/09/06 11:02:25;;;;;;;3.85;1.92;;;26.20;99.90;;;;;;5014379;28;20562;-62
2022/09/06 11:04:51;;;;;;;2.40;2.28;;;26.20;99.90;;;;;;5013370;28;20193;-62
2022/09/06 11:07:29;;;;;;;3.65;1.73;;;26.10;99.90;;;;;;5026118;28;20199;-62
2022/09/06 11:10:06;;;;;;;2.63;1.63;;;25.90;99.90;;;;;;5013067;28;20190;-62
2022/09/06 11:12:40;;;;;;;1.70;1.60;;;25.80;99.90;;;;;;5021110;28;20188;-62
2022/09/06 11:15:09;;;;;;;2.15;2.05;;;25.90;99.90;;;;;;5014260;28;20735;-62
2022/09/06 11:17:47;;;;;;;2.25;2.05;;;25.90;99.90;;;;;;5021184;28;20213;-62
2022/09/06 11:20:35;;;;;;;1.83;1.70;;;25.80;99.90;;;;;;5020586;28;20182;-62
2022/09/06 11:23:20;;;;;;;2.97;1.80;;;25.90;99.90;;;;;;5017213;28;20215;-62
2022/09/06 11:26:07;;;;;;;1.70;1.60;;;25.90;99.90;;;;;;5013843;28;20186;-62
2022/09/06 11:28:43;;;;;;;6.30;2.50;;;25.90;99.90;;;;;;5023436;28;20281;-62
2022/09/06 11:31:27;;;;;;;3.95;1.90;;;25.90;99.90;;;;;;5012991;28;20652;-61
2022/09/06 11:34:04;;;;;;;2.53;2.33;;;26.10;99.90;;;;;;5012987;28;20265;-61
2022/09/06 11:36:29;;;;;;;2.60;1.70;;;26.00;99.90;;;;;;5013158;28;20652;-61
2022/09/06 11:38:58;;;;;;;1.98;1.77;;;25.90;99.90;;;;;;5014869;28;20235;-62
2022/09/06 11:41:30;;;;;;;1.80;1.70;;;26.00;99.90;;;;;;5012827;28;20270;-61
2022/09/06 11:43:56;;;;;;;3.00;2.72;;;25.90;99.90;;;;;;5012975;28;20187;-61
2022/09/06 11:46:34;;;;;;;3.28;1.48;;;26.10;99.90;;;;;;5019672;28;20187;-62
2022/09/06 11:49:04;;;;;;;2.67;1.90;;;26.30;99.90;;;;;;5021119;28;20202;-62
2022/09/06 11:51:33;;;;;;;2.83;2.45;;;26.50;99.90;;;;;;5012546;28;20179;-62
2022/09/06 11:54:02;;;;;;;1.60;1.50;;;26.60;99.90;;;;;;5012545;28;20210;-62
2022/09/06 11:56:46;;;;;;;2.13;2.03;;;26.40;99.90;;;;;;5014389;28;20183;-62
2022/09/06 11:59:26;;;;;;;2.03;1.77;;;26.30;99.90;;;;;;5022488;28;20193;-62
2022/09/06 12:01:54;;;;;;;2.25;1.40;;;26.30;99.90;;;;;;5018585;28;20269;-62
2022/09/06 12:04:20;;;;;;;4.93;2.03;;;26.40;99.90;;;;;;5012486;28;20671;-62
2022/09/06 12:07:11;;;;;;;2.08;1.98;;;26.50;99.90;;;;;;5026118;28;20221;-62
2022/09/06 12:09:40;;;;;;;1.90;1.80;;;26.60;99.90;;;;;;5015894;28;20190;-62
2022/09/06 12:12:06;;;;;;;3.97;1.88;;;26.60;99.90;;;;;;5022549;28;20536;-62
2022/09/06 12:14:41;;;;;;;1.80;1.70;;;26.60;99.90;;;;;;5016192;28;20665;-62
2022/09/06 12:17:07;;;;;;;2.90;1.67;;;26.50;99.90;;;;;;5029333;28;20638;-62
2022/09/06 12:19:51;;;;;;;5.43;2.35;;;26.40;99.90;;;;;;5018709;28;20206;-62
2022/09/06 12:22:29;;;;;;;4.18;1.52;;;26.40;99.90;;;;;;5018210;28;20182;-62
2022/09/06 12:25:14;;;;;;;3.58;1.90;;;26.40;99.90;;;;;;5050170;28;20222;-62
2022/09/06 12:27:57;;;;;;;1.90;1.80;;;26.60;99.90;;;;;;5020708;28;20186;-62
2022/09/06 12:30:38;;;;;;;3.95;2.00;;;26.70;99.90;;;;;;5033637;28;20670;-61
2022/09/06 12:33:13;;;;;;;3.45;1.83;;;26.80;99.90;;;;;;5018343;28;20217;-62
2022/09/06 12:35:39;;;;;;;7.95;2.35;;;26.90;99.90;;;;;;5020499;28;20274;-62
2022/09/06 12:38:10;;;;;;;3.72;1.80;;;27.10;99.90;;;;;;5021370;28;20274;-62
2022/09/06 12:40:44;;;;;;;1.70;1.60;;;27.40;99.90;;;;;;5016394;28;20666;-62
2022/09/06 12:43:14;;;;;;;2.28;1.90;;;27.30;99.90;;;;;;5025231;28;20237;-63
2022/09/06 12:45:49;;;;;;;6.53;1.80;;;27.10;99.90;;;;;;5014865;28;20190;-62
2022/09/06 12:48:30;;;;;;;3.08;1.88;;;27.00;99.90;;;;;;5021446;28;20205;-62
2022/09/06 12:51:14;;;;;;;3.25;1.90;;;26.90;99.90;;;;;;5023126;28;20190;-62
2022/09/06 12:53:49;;;;;;;2.88;1.48;;;26.90;99.90;;;;;;5017977;28;20674;-62
2022/09/06 12:56:19;;;;;;;2.28;1.95;;;26.80;99.90;;;;;;5027316;28;20192;-62
2022/09/06 12:58:45;;;;;;;3.60;1.80;;;26.80;99.90;;;;;;5019398;28;20250;-62
2022/09/06 13:01:16;;;;;;;3.75;1.88;;;26.90;99.90;;;;;;5052947;28;20269;-62
2022/09/06 13:04:03;;;;;;;2.03;1.92;;;27.10;99.90;;;;;;5014839;28;20229;-62